Elberta, Utah
Current Conditions -  °F | °C
As of 1:35 PM on Friday 19 Dec 2014 (Local Time) from KPVU Reporting Station
Clear Clear  
Wind Chill: 43°   Ceiling: Unl
Heat Index: 43°   Visibility: 10mi
Dew Point: 27°   Wind: 3mph
Humidity: 53%   Direction: 150°SSE
Pressure: 30.17"   Gusts: NA
Location:  39.95°N, 111.96°W
Report Text: KPVU 192035Z AUTO 15003KT 10SM CLR 06/M03 A3017 RMK AO1
Loading
Personal Weather Stations






























Interactive Weather Map New forecast layout! Learn more

10-Day Weather Forecast

Advertisements
Track Severe Weather on mobile